sensor_id;sensor_type;location;lat;lon;timestamp;pressure;altitude;pressure_sealevel;temperature;humidity
28000;BME280;15328;50.860;10.562;2023-03-04T00:02:28;96986.75;;;2.09;65.53
28000;BME280;15328;50.860;10.562;2023-03-04T00:07:28;96984.28;;;2.07;65.86
28000;BME280;15328;50.860;10.562;2023-03-04T00:12:29;96978.94;;;2.17;65.95
28000;BME280;15328;50.860;10.562;2023-03-04T00:17:29;96981.56;;;2.17;65.33
28000;BME280;15328;50.860;10.562;2023-03-04T00:22:30;96980.72;;;2.16;65.05
28000;BME280;15328;50.860;10.562;2023-03-04T00:27:31;96983.91;;;2.20;64.86
28000;BME280;15328;50.860;10.562;2023-03-04T00:32:31;96978.56;;;2.12;65.04
28000;BME280;15328;50.860;10.562;2023-03-04T00:37:31;96973.00;;;2.15;64.58
28000;BME280;15328;50.860;10.562;2023-03-04T00:42:32;96967.56;;;2.08;64.64
28000;BME280;15328;50.860;10.562;2023-03-04T00:47:32;96962.97;;;2.10;65.25
28000;BME280;15328;50.860;10.562;2023-03-04T00:52:32;96955.16;;;2.18;64.21
28000;BME280;15328;50.860;10.562;2023-03-04T00:57:33;96956.59;;;2.13;64.66
28000;BME280;15328;50.860;10.562;2023-03-04T01:02:33;96952.69;;;2.17;64.14
28000;BME280;15328;50.860;10.562;2023-03-04T01:07:33;96959.44;;;2.20;64.25
28000;BME280;15328;50.860;10.562;2023-03-04T01:12:34;96947.44;;;2.17;64.02
28000;BME280;15328;50.860;10.562;2023-03-04T01:17:34;96945.09;;;2.14;63.69
28000;BME280;15328;50.860;10.562;2023-03-04T01:22:35;96938.53;;;2.10;64.26
28000;BME280;15328;50.860;10.562;2023-03-04T01:27:35;96929.81;;;2.09;63.90
28000;BME280;15328;50.860;10.562;2023-03-04T01:32:36;96920.97;;;2.10;64.23
28000;BME280;15328;50.860;10.562;2023-03-04T01:37:36;96916.84;;;2.08;63.58
28000;BME280;15328;50.860;10.562;2023-03-04T01:42:37;96915.00;;;2.00;64.57
28000;BME280;15328;50.860;10.562;2023-03-04T01:47:37;96905.53;;;2.07;63.10
28000;BME280;15328;50.860;10.562;2023-03-04T01:52:38;96900.59;;;2.04;64.21
28000;BME280;15328;50.860;10.562;2023-03-04T01:57:40;96890.22;;;1.95;63.73
28000;BME280;15328;50.860;10.562;2023-03-04T02:02:40;96886.59;;;1.96;63.87
28000;BME280;15328;50.860;10.562;2023-03-04T02:07:41;96883.19;;;2.03;64.12
28000;BME280;15328;50.860;10.562;2023-03-04T02:12:43;96882.38;;;2.03;64.07
28000;BME280;15328;50.860;10.562;2023-03-04T02:17:44;96879.91;;;2.01;63.59
28000;BME280;15328;50.860;10.562;2023-03-04T02:23:34;96871.72;;;2.04;64.10
28000;BME280;15328;50.860;10.562;2023-03-04T02:28:31;96854.69;;;2.08;63.02
28000;BME280;15328;50.860;10.562;2023-03-04T02:33:31;96854.53;;;2.10;63.60
28000;BME280;15328;50.860;10.562;2023-03-04T02:38:32;96853.72;;;2.09;63.30
28000;BME280;15328;50.860;10.562;2023-03-04T02:43:32;96855.72;;;2.15;63.04
28000;BME280;15328;50.860;10.562;2023-03-04T02:48:33;96854.88;;;2.15;63.19
28000;BME280;15328;50.860;10.562;2023-03-04T02:53:33;96847.25;;;2.22;62.97
28000;BME280;15328;50.860;10.562;2023-03-04T02:58:34;96849.88;;;2.22;63.07
28000;BME280;15328;50.860;10.562;2023-03-04T03:03:34;96846.75;;;2.26;62.66
28000;BME280;15328;50.860;10.562;2023-03-04T03:08:34;96840.69;;;2.26;62.27
28000;BME280;15328;50.860;10.562;2023-03-04T03:13:35;96840.94;;;2.14;63.03
28000;BME280;15328;50.860;10.562;2023-03-04T03:18:35;96834.41;;;2.18;62.72
28000;BME280;15328;50.860;10.562;2023-03-04T03:23:35;96826.06;;;2.23;62.77
28000;BME280;15328;50.860;10.562;2023-03-04T03:28:36;96827.56;;;2.26;61.77
28000;BME280;15328;50.860;10.562;2023-03-04T03:33:36;96819.84;;;2.24;62.28
28000;BME280;15328;50.860;10.562;2023-03-04T03:38:37;96813.47;;;2.27;62.31
28000;BME280;15328;50.860;10.562;2023-03-04T03:43:37;96820.81;;;2.23;62.35
28000;BME280;15328;50.860;10.562;2023-03-04T03:48:37;96818.53;;;2.20;62.29
28000;BME280;15328;50.860;10.562;2023-03-04T03:53:38;96829.53;;;2.24;62.07
28000;BME280;15328;50.860;10.562;2023-03-04T03:58:38;96831.38;;;2.31;61.49
28000;BME280;15328;50.860;10.562;2023-03-04T04:03:39;96827.72;;;2.24;61.86
28000;BME280;15328;50.860;10.562;2023-03-04T04:08:39;96822.66;;;2.31;61.77
28000;BME280;15328;50.860;10.562;2023-03-04T04:13:39;96827.56;;;2.26;62.22
28000;BME280;15328;50.860;10.562;2023-03-04T04:18:40;96827.56;;;2.26;61.89
28000;BME280;15328;50.860;10.562;2023-03-04T04:23:40;96839.72;;;2.27;61.99
28000;BME280;15328;50.860;10.562;2023-03-04T04:28:40;96831.38;;;2.31;61.46
28000;BME280;15328;50.860;10.562;2023-03-04T04:33:41;96831.00;;;2.26;61.69
28000;BME280;15328;50.860;10.562;2023-03-04T04:38:41;96829.56;;;2.32;61.24
28000;BME280;15328;50.860;10.562;2023-03-04T04:43:41;96824.81;;;2.35;61.29
28000;BME280;15328;50.860;10.562;2023-03-04T04:48:42;96819.06;;;2.32;62.21
28000;BME280;15328;50.860;10.562;2023-03-04T04:53:43;96823.16;;;2.34;61.45
28000;BME280;15328;50.860;10.562;2023-03-04T04:58:45;96818.94;;;2.41;61.56
28000;BME280;15328;50.860;10.562;2023-03-04T05:03:46;96821.72;;;2.40;61.07
28000;BME280;15328;50.860;10.562;2023-03-04T05:08:49;96818.94;;;2.41;61.67
28000;BME280;15328;50.860;10.562;2023-03-04T05:13:49;96823.03;;;2.44;61.60
28000;BME280;15328;50.860;10.562;2023-03-04T05:18:50;96829.09;;;2.44;61.30
28000;BME280;15328;50.860;10.562;2023-03-04T05:23:50;96828.28;;;2.44;60.92
28000;BME280;15328;50.860;10.562;2023-03-04T05:28:51;96831.13;;;2.51;61.23
28000;BME280;15328;50.860;10.562;2023-03-04T05:33:51;96835.56;;;2.50;61.16
28000;BME280;15328;50.860;10.562;2023-03-04T05:38:52;96840.81;;;2.50;61.53
28000;BME280;15328;50.860;10.562;2023-03-04T05:43:52;96836.69;;;2.47;61.45
28000;BME280;15328;50.860;10.562;2023-03-04T05:48:53;96837.06;;;2.53;61.05
28000;BME280;15328;50.860;10.562;2023-03-04T05:53:53;96842.31;;;2.53;61.92
28000;BME280;15328;50.860;10.562;2023-03-04T05:58:59;96848.53;;;2.52;61.58
28000;BME280;15328;50.860;10.562;2023-03-04T06:03:59;96842.66;;;2.58;61.23
28000;BME280;15328;50.860;10.562;2023-03-04T06:08:59;96843.31;;;2.60;61.19
28000;BME280;15328;50.860;10.562;2023-03-04T06:14:00;96844.94;;;2.61;61.50
28000;BME280;15328;50.860;10.562;2023-03-04T06:19:00;96851.03;;;2.61;61.11
28000;BME280;15328;50.860;10.562;2023-03-04T06:24:01;96851.03;;;2.61;60.91
28000;BME280;15328;50.860;10.562;2023-03-04T06:29:01;96853.19;;;2.66;61.35
28000;BME280;15328;50.860;10.562;2023-03-04T06:34:01;96860.75;;;2.69;61.37
28000;BME280;15328;50.860;10.562;2023-03-04T06:39:06;96855.63;;;2.59;61.44
28000;BME280;15328;50.860;10.562;2023-03-04T06:44:06;96867.31;;;2.73;61.38
28000;BME280;15328;50.860;10.562;2023-03-04T06:49:07;96863.00;;;2.56;61.51
28000;BME280;15328;50.860;10.562;2023-03-04T06:54:08;96867.63;;;2.70;61.42
28000;BME280;15328;50.860;10.562;2023-03-04T06:59:08;96865.38;;;2.75;61.61
28000;BME280;15328;50.860;10.562;2023-03-04T07:04:10;96863.56;;;2.75;61.64
28000;BME280;15328;50.860;10.562;2023-03-04T07:09:12;96862.28;;;2.79;61.16
28000;BME280;15328;50.860;10.562;2023-03-04T07:14:12;96863.09;;;2.80;61.43
28000;BME280;15328;50.860;10.562;2023-03-04T07:19:13;96859.97;;;2.76;61.08
28000;BME280;15328;50.860;10.562;2023-03-04T07:24:13;96860.81;;;2.85;61.49
28000;BME280;15328;50.860;10.562;2023-03-04T07:29:14;96862.28;;;2.88;61.34
28000;BME280;15328;50.860;10.562;2023-03-04T07:34:14;96866.41;;;2.98;61.31
28000;BME280;15328;50.860;10.562;2023-03-04T07:39:15;96870.09;;;3.05;61.19
28000;BME280;15328;50.860;10.562;2023-03-04T07:44:15;96873.38;;;3.16;60.81
28000;BME280;15328;50.860;10.562;2023-03-04T07:49:15;96878.97;;;3.21;61.32
28000;BME280;15328;50.860;10.562;2023-03-04T07:54:16;96878.31;;;3.27;60.98
28000;BME280;15328;50.860;10.562;2023-03-04T07:59:19;96892.47;;;3.26;60.54
28000;BME280;15328;50.860;10.562;2023-03-04T08:04:19;96885.09;;;3.29;60.56
28000;BME280;15328;50.860;10.562;2023-03-04T08:09:19;96889.88;;;3.34;60.54
28000;BME280;15328;50.860;10.562;2023-03-04T08:14:20;96874.91;;;3.34;61.03
28000;BME280;15328;50.860;10.562;2023-03-04T08:19:21;96873.59;;;3.38;60.56
28000;BME280;15328;50.860;10.562;2023-03-04T08:24:21;96867.03;;;3.51;60.21
28000;BME280;15328;50.860;10.562;2023-03-04T08:29:23;96868.50;;;3.45;60.25
28000;BME280;15328;50.860;10.562;2023-03-04T08:34:26;96866.53;;;3.55;60.48
28000;BME280;15328;50.860;10.562;2023-03-04T08:39:27;96872.59;;;3.56;60.13
28000;BME280;15328;50.860;10.562;2023-03-04T08:44:27;96865.56;;;3.56;60.43
28000;BME280;15328;50.860;10.562;2023-03-04T08:49:28;96866.53;;;3.71;59.93
28000;BME280;15328;50.860;10.562;2023-03-04T08:54:28;96865.88;;;3.78;59.35
28000;BME280;15328;50.860;10.562;2023-03-04T08:59:29;96862.13;;;3.88;59.71
28000;BME280;15328;50.860;10.562;2023-03-04T09:04:29;96860.47;;;3.95;59.95
28000;BME280;15328;50.860;10.562;2023-03-04T09:09:29;96860.47;;;3.95;59.19
28000;BME280;15328;50.860;10.562;2023-03-04T09:14:30;96860.94;;;4.07;59.27
28000;BME280;15328;50.860;10.562;2023-03-04T09:19:31;96860.22;;;4.29;59.04
28000;BME280;15328;50.860;10.562;2023-03-04T09:24:32;96858.56;;;4.37;58.70
28000;BME280;15328;50.860;10.562;2023-03-04T09:29:32;96838.59;;;4.89;58.39
28000;BME280;15328;50.860;10.562;2023-03-04T09:34:33;96836.00;;;5.20;56.03
28000;BME280;15328;50.860;10.562;2023-03-04T09:39:33;96836.41;;;5.55;55.54
28000;BME280;15328;50.860;10.562;2023-03-04T09:44:40;96846.78;;;5.79;54.95
28000;BME280;15328;50.860;10.562;2023-03-04T09:49:44;96826.88;;;5.69;54.04
28000;BME280;15328;50.860;10.562;2023-03-04T10:05:20;96828.06;;;5.43;54.34
28000;BME280;15328;50.860;10.562;2023-03-04T10:10:37;96831.41;;;5.37;55.03
28000;BME280;15328;50.860;10.562;2023-03-04T10:15:42;96830.31;;;5.32;55.18
28000;BME280;15328;50.860;10.562;2023-03-04T10:25:44;96845.84;;;5.49;55.30
28000;BME280;15328;50.860;10.562;2023-03-04T10:31:14;96835.34;;;5.64;55.04
28000;BME280;15328;50.860;10.562;2023-03-04T10:41:29;96829.59;;;5.61;54.71
28000;BME280;15328;50.860;10.562;2023-03-04T10:46:31;96826.72;;;5.47;54.83
28000;BME280;15328;50.860;10.562;2023-03-04T10:51:31;96821.03;;;5.58;55.08
28000;BME280;15328;50.860;10.562;2023-03-04T10:56:40;96816.31;;;5.69;55.59
28000;BME280;15328;50.860;10.562;2023-03-04T11:01:45;96820.28;;;5.50;55.60
28000;BME280;15328;50.860;10.562;2023-03-04T11:06:46;96816.28;;;5.54;55.17
28000;BME280;15328;50.860;10.562;2023-03-04T11:11:49;96810.13;;;5.39;55.65
28000;BME280;15328;50.860;10.562;2023-03-04T11:16:52;96795.47;;;5.59;55.02
28000;BME280;15328;50.860;10.562;2023-03-04T11:21:54;96795.84;;;5.71;55.79
28000;BME280;15328;50.860;10.562;2023-03-04T11:27:02;96793.66;;;5.59;55.57
28000;BME280;15328;50.860;10.562;2023-03-04T11:32:07;96790.75;;;5.69;55.42
28000;BME280;15328;50.860;10.562;2023-03-04T11:48:03;96780.72;;;5.65;55.85
28000;BME280;15328;50.860;10.562;2023-03-04T11:53:22;96777.44;;;5.63;55.38
28000;BME280;15328;50.860;10.562;2023-03-04T12:04:09;96776.69;;;5.77;55.97
28000;BME280;15328;50.860;10.562;2023-03-04T12:09:39;96758.06;;;5.70;55.50
28000;BME280;15328;50.860;10.562;2023-03-04T12:30:38;96752.09;;;5.76;55.95
28000;BME280;15328;50.860;10.562;2023-03-04T12:36:54;96749.22;;;5.63;56.23
28000;BME280;15328;50.860;10.562;2023-03-04T12:41:33;96744.41;;;5.67;56.78
28000;BME280;15328;50.860;10.562;2023-03-04T12:52:15;96734.72;;;5.44;57.61
28000;BME280;15328;50.860;10.562;2023-03-04T12:57:25;96727.66;;;5.59;56.87
28000;BME280;15328;50.860;10.562;2023-03-04T13:02:40;96733.31;;;5.56;57.25
28000;BME280;15328;50.860;10.562;2023-03-04T13:13:02;96722.53;;;5.43;57.40
28000;BME280;15328;50.860;10.562;2023-03-04T13:18:32;96720.25;;;5.40;58.16
28000;BME280;15328;50.860;10.562;2023-03-04T13:23:32;96714.09;;;5.48;58.52
28000;BME280;15328;50.860;10.562;2023-03-04T13:28:36;96719.66;;;5.53;58.50
28000;BME280;15328;50.860;10.562;2023-03-04T13:38:37;96714.94;;;5.78;58.06
28000;BME280;15328;50.860;10.562;2023-03-04T13:43:42;96713.00;;;5.72;58.40
28000;BME280;15328;50.860;10.562;2023-03-04T13:53:54;96693.47;;;5.81;58.31
28000;BME280;15328;50.860;10.562;2023-03-04T14:09:21;96666.91;;;5.97;56.38
28000;BME280;15328;50.860;10.562;2023-03-04T14:14:43;96665.50;;;5.86;55.90
28000;BME280;15328;50.860;10.562;2023-03-04T14:19:48;96662.50;;;5.75;55.79
28000;BME280;15328;50.860;10.562;2023-03-04T14:25:02;96652.13;;;5.73;55.04
28000;BME280;15328;50.860;10.562;2023-03-04T14:30:06;96648.34;;;5.91;55.38
28000;BME280;15328;50.860;10.562;2023-03-04T14:35:18;96644.22;;;5.88;54.57
28000;BME280;15328;50.860;10.562;2023-03-04T14:40:22;96646.41;;;5.84;54.62
28000;BME280;15328;50.860;10.562;2023-03-04T14:45:24;96652.41;;;5.93;55.07
28000;BME280;15328;50.860;10.562;2023-03-04T14:50:25;96637.28;;;5.72;55.22
28000;BME280;15328;50.860;10.562;2023-03-04T14:55:26;96632.81;;;5.73;56.02
28000;BME280;15328;50.860;10.562;2023-03-04T15:00:30;96633.13;;;5.78;55.79
28000;BME280;15328;50.860;10.562;2023-03-04T15:05:33;96626.53;;;5.88;55.62
28000;BME280;15328;50.860;10.562;2023-03-04T15:10:35;96626.03;;;5.93;55.74
28000;BME280;15328;50.860;10.562;2023-03-04T15:15:40;96620.19;;;5.83;56.29
28000;BME280;15328;50.860;10.562;2023-03-04T15:20:41;96630.56;;;5.84;56.47
28000;BME280;15328;50.860;10.562;2023-03-04T15:25:41;96622.25;;;5.87;56.64
28000;BME280;15328;50.860;10.562;2023-03-04T15:30:41;96620.00;;;5.84;56.42
28000;BME280;15328;50.860;10.562;2023-03-04T15:35:52;96617.63;;;5.75;57.22
28000;BME280;15328;50.860;10.562;2023-03-04T15:40:54;96630.94;;;5.81;57.46
28000;BME280;15328;50.860;10.562;2023-03-04T15:45:56;96620.28;;;5.89;57.76
28000;BME280;15328;50.860;10.562;2023-03-04T15:50:59;96621.81;;;5.99;57.41
28000;BME280;15328;50.860;10.562;2023-03-04T15:56:01;96612.06;;;5.84;57.27
28000;BME280;15328;50.860;10.562;2023-03-04T16:01:03;96615.66;;;5.77;58.28
28000;BME280;15328;50.860;10.562;2023-03-04T16:06:08;96624.28;;;5.85;57.82
28000;BME280;15328;50.860;10.562;2023-03-04T16:11:15;96621.19;;;5.82;58.52
28000;BME280;15328;50.860;10.562;2023-03-04T16:16:16;96624.28;;;5.85;58.30
28000;BME280;15328;50.860;10.562;2023-03-04T16:21:18;96618.72;;;5.80;58.67
28000;BME280;15328;50.860;10.562;2023-03-04T16:26:22;96615.47;;;5.49;60.22
28000;BME280;15328;50.860;10.562;2023-03-04T16:31:38;96616.81;;;5.30;60.61
28000;BME280;15328;50.860;10.562;2023-03-04T16:36:39;96610.34;;;5.33;60.89
28000;BME280;15328;50.860;10.562;2023-03-04T16:41:39;96616.88;;;5.22;60.92
28000;BME280;15328;50.860;10.562;2023-03-04T16:46:40;96605.75;;;5.12;60.47
28000;BME280;15328;50.860;10.562;2023-03-04T16:51:44;96612.66;;;5.13;59.58
28000;BME280;15328;50.860;10.562;2023-03-04T16:56:45;96619.03;;;5.18;60.58
28000;BME280;15328;50.860;10.562;2023-03-04T17:01:46;96622.34;;;5.20;60.41
28000;BME280;15328;50.860;10.562;2023-03-04T17:06:47;96612.63;;;5.21;60.20
28000;BME280;15328;50.860;10.562;2023-03-04T17:11:47;96622.22;;;5.14;60.67
28000;BME280;15328;50.860;10.562;2023-03-04T17:16:48;96631.66;;;5.08;61.17
28000;BME280;15328;50.860;10.562;2023-03-04T17:21:48;96635.03;;;5.02;61.91
28000;BME280;15328;50.860;10.562;2023-03-04T17:26:49;96647.56;;;5.00;62.56
28000;BME280;15328;50.860;10.562;2023-03-04T17:31:49;96648.75;;;4.97;62.72
28000;BME280;15328;50.860;10.562;2023-03-04T17:36:50;96638.38;;;4.96;63.02
28000;BME280;15328;50.860;10.562;2023-03-04T17:41:51;96646.47;;;4.94;63.35
28000;BME280;15328;50.860;10.562;2023-03-04T17:46:51;96643.53;;;4.89;63.83
28000;BME280;15328;50.860;10.562;2023-03-04T17:51:52;96657.34;;;4.91;63.91
28000;BME280;15328;50.860;10.562;2023-03-04T17:56:52;96658.22;;;4.84;64.25
28000;BME280;15328;50.860;10.562;2023-03-04T18:01:53;96657.84;;;4.72;65.51
28000;BME280;15328;50.860;10.562;2023-03-04T18:06:53;96662.81;;;4.67;64.09
28000;BME280;15328;50.860;10.562;2023-03-04T18:11:54;96655.94;;;4.58;64.57
28000;BME280;15328;50.860;10.562;2023-03-04T18:16:54;96650.44;;;4.45;65.24
28000;BME280;15328;50.860;10.562;2023-03-04T18:21:54;96643.56;;;4.35;65.56
28000;BME280;15328;50.860;10.562;2023-03-04T18:26:55;96644.72;;;4.33;65.98
28000;BME280;15328;50.860;10.562;2023-03-04T18:31:55;96655.78;;;4.28;66.84
28000;BME280;15328;50.860;10.562;2023-03-04T18:36:56;96648.53;;;4.30;66.48
28000;BME280;15328;50.860;10.562;2023-03-04T18:41:56;96654.44;;;4.32;66.50
28000;BME280;15328;50.860;10.562;2023-03-04T18:46:57;96646.72;;;4.31;66.95
28000;BME280;15328;50.860;10.562;2023-03-04T18:51:57;96643.09;;;4.32;67.14
28000;BME280;15328;50.860;10.562;2023-03-04T18:57:06;96647.72;;;4.30;67.35
28000;BME280;15328;50.860;10.562;2023-03-04T19:02:32;96649.06;;;4.26;67.83
28000;BME280;15328;50.860;10.562;2023-03-04T19:07:35;96642.91;;;4.33;66.98
28000;BME280;15328;50.860;10.562;2023-03-04T19:12:36;96641.34;;;4.24;67.32
28000;BME280;15328;50.860;10.562;2023-03-04T19:17:37;96640.50;;;4.24;67.41
28000;BME280;15328;50.860;10.562;2023-03-04T19:22:37;96635.59;;;4.21;67.39
28000;BME280;15328;50.860;10.562;2023-03-04T19:27:38;96643.19;;;4.16;66.74
28000;BME280;15328;50.860;10.562;2023-03-04T19:32:38;96640.09;;;4.12;67.55
28000;BME280;15328;50.860;10.562;2023-03-04T19:37:39;96633.84;;;4.05;67.49
28000;BME280;15328;50.860;10.562;2023-03-04T19:42:39;96635.84;;;4.03;67.49
28000;BME280;15328;50.860;10.562;2023-03-04T19:47:39;96640.63;;;3.99;67.25
28000;BME280;15328;50.860;10.562;2023-03-04T19:52:40;96637.53;;;3.96;67.87
28000;BME280;15328;50.860;10.562;2023-03-04T19:57:42;96636.88;;;3.94;67.53
28000;BME280;15328;50.860;10.562;2023-03-04T20:02:42;96643.97;;;3.93;67.45
28000;BME280;15328;50.860;10.562;2023-03-04T20:07:44;96647.94;;;3.89;67.37
28000;BME280;15328;50.860;10.562;2023-03-04T20:12:45;96645.28;;;3.89;67.38
28000;BME280;15328;50.860;10.562;2023-03-04T20:17:45;96648.97;;;3.72;66.97
28000;BME280;15328;50.860;10.562;2023-03-04T20:22:46;96648.66;;;3.67;66.96
28000;BME280;15328;50.860;10.562;2023-03-04T20:27:46;96653.91;;;3.67;67.19
28000;BME280;15328;50.860;10.562;2023-03-04T20:32:47;96651.81;;;3.62;67.55
28000;BME280;15328;50.860;10.562;2023-03-04T20:37:50;96655.25;;;3.55;67.65
28000;BME280;15328;50.860;10.562;2023-03-04T20:42:50;96654.25;;;3.56;68.52
28000;BME280;15328;50.860;10.562;2023-03-04T20:47:54;96652.97;;;3.60;67.69
28000;BME280;15328;50.860;10.562;2023-03-04T20:52:54;96653.44;;;3.63;66.97
28000;BME280;15328;50.860;10.562;2023-03-04T20:57:58;96657.75;;;3.56;67.45
28000;BME280;15328;50.860;10.562;2023-03-04T21:02:58;96650.81;;;3.55;67.41
28000;BME280;15328;50.860;10.562;2023-03-04T21:07:59;96649.84;;;3.56;67.48
28000;BME280;15328;50.860;10.562;2023-03-04T21:12:59;96654.59;;;3.61;67.12
28000;BME280;15328;50.860;10.562;2023-03-04T21:18:02;96647.22;;;3.56;66.86
28000;BME280;15328;50.860;10.562;2023-03-04T21:23:03;96653.94;;;3.51;67.23
28000;BME280;15328;50.860;10.562;2023-03-04T21:28:03;96649.50;;;3.51;66.16
28000;BME280;15328;50.860;10.562;2023-03-04T21:33:05;96644.94;;;3.45;66.99
28000;BME280;15328;50.860;10.562;2023-03-04T21:38:06;96649.19;;;3.46;67.00
28000;BME280;15328;50.860;10.562;2023-03-04T21:43:15;96648.72;;;3.42;66.68
28000;BME280;15328;50.860;10.562;2023-03-04T21:48:22;96645.28;;;3.42;66.60
28000;BME280;15328;50.860;10.562;2023-03-04T21:53:25;96648.25;;;3.39;66.73
28000;BME280;15328;50.860;10.562;2023-03-04T21:58:29;96649.22;;;3.38;66.46
28000;BME280;15328;50.860;10.562;2023-03-04T22:03:29;96638.84;;;3.45;66.27
28000;BME280;15328;50.860;10.562;2023-03-04T22:08:30;96629.03;;;3.30;65.86
28000;BME280;15328;50.860;10.562;2023-03-04T22:13:31;96619.66;;;3.28;66.32
28000;BME280;15328;50.860;10.562;2023-03-04T22:18:33;96625.06;;;3.26;66.05
28000;BME280;15328;50.860;10.562;2023-03-04T22:23:33;96619.00;;;3.26;65.80
28000;BME280;15328;50.860;10.562;2023-03-04T22:28:34;96617.03;;;3.20;66.15
28000;BME280;15328;50.860;10.562;2023-03-04T22:33:34;96622.31;;;3.20;65.10
28000;BME280;15328;50.860;10.562;2023-03-04T22:38:36;96619.03;;;3.18;65.15
28000;BME280;15328;50.860;10.562;2023-03-04T22:43:36;96615.72;;;3.24;64.93
28000;BME280;15328;50.860;10.562;2023-03-04T22:48:37;96609.97;;;3.20;64.35
28000;BME280;15328;50.860;10.562;2023-03-04T22:53:37;96615.91;;;3.14;64.80
28000;BME280;15328;50.860;10.562;2023-03-04T22:58:39;96609.81;;;3.14;64.51
28000;BME280;15328;50.860;10.562;2023-03-04T23:03:41;96607.69;;;3.17;64.27
28000;BME280;15328;50.860;10.562;2023-03-04T23:08:43;96613.44;;;3.13;63.82
28000;BME280;15328;50.860;10.562;2023-03-04T23:13:44;96611.16;;;3.09;63.76
28000;BME280;15328;50.860;10.562;2023-03-04T23:18:50;96607.88;;;3.07;63.84
28000;BME280;15328;50.860;10.562;2023-03-04T23:30:47;96613.13;;;2.99;63.03
